createdAt,value
2022-11-17T00:00:05.621Z,9.95
2022-11-17T00:02:34.726Z,9.98
2022-11-17T00:05:02.482Z,10.40
2022-11-17T00:07:30.810Z,10.05
2022-11-17T00:09:58.499Z,10.25
2022-11-17T00:12:43.767Z,10.27
2022-11-17T00:15:11.753Z,10.48
2022-11-17T00:17:40.985Z,9.93
2022-11-17T00:20:28.415Z,10.27
2022-11-17T00:22:56.090Z,10.15
2022-11-17T00:25:24.367Z,11.10
2022-11-17T00:27:52.177Z,10.40
2022-11-17T00:30:33.904Z,10.85
2022-11-17T00:33:21.607Z,8.10
2022-11-17T00:35:53.131Z,10.15
2022-11-17T00:38:21.246Z,10.93
2022-11-17T00:40:48.905Z,10.63
2022-11-17T00:43:16.661Z,10.30
2022-11-17T00:45:44.429Z,9.48
2022-11-17T00:48:13.881Z,9.55
2022-11-17T00:50:41.627Z,9.88
2022-11-17T00:53:10.417Z,9.57
2022-11-17T00:55:38.304Z,9.85
2022-11-17T00:58:06.234Z,10.13
2022-11-17T01:00:33.887Z,10.50
2022-11-17T01:03:01.537Z,9.98
2022-11-17T01:05:33.155Z,10.23
2022-11-17T01:08:00.978Z,11.50
2022-11-17T01:10:28.660Z,11.20
2022-11-17T01:12:56.322Z,11.70
2022-11-17T01:15:24.112Z,12.98
2022-11-17T01:17:51.778Z,12.50
2022-11-17T01:20:19.639Z,12.52
2022-11-17T01:22:48.732Z,11.40
2022-11-17T01:25:16.536Z,11.18
2022-11-17T01:27:44.245Z,11.57
2022-11-17T01:30:13.821Z,10.82
2022-11-17T01:32:41.578Z,11.23
2022-11-17T01:35:09.937Z,12.30
2022-11-17T01:37:37.638Z,12.35
2022-11-17T01:40:08.394Z,11.38
2022-11-17T01:42:36.094Z,11.98
2022-11-17T01:45:05.691Z,11.45
2022-11-17T01:47:40.791Z,10.55
2022-11-17T01:50:13.769Z,11.38
2022-11-17T01:52:42.249Z,11.82
2022-11-17T01:55:12.425Z,12.50
2022-11-17T01:57:43.012Z,11.10
2022-11-17T02:00:12.060Z,11.40
2022-11-17T02:02:40.874Z,11.50
2022-11-17T02:05:17.910Z,11.63
2022-11-17T02:07:46.315Z,11.10
2022-11-17T02:10:15.515Z,11.52
2022-11-17T02:12:43.506Z,11.80
2022-11-17T02:15:11.756Z,13.00
2022-11-17T02:17:40.868Z,12.80
2022-11-17T02:20:11.714Z,11.10
2022-11-17T02:23:21.715Z,10.73
2022-11-17T02:26:08.928Z,18.52
2022-11-17T02:28:38.961Z,11.23
2022-11-17T02:31:17.470Z,11.18
2022-11-17T02:33:54.746Z,11.00
2022-11-17T02:36:27.418Z,9.52
2022-11-17T02:39:00.051Z,10.55
2022-11-17T02:41:31.261Z,10.57
2022-11-17T02:44:04.835Z,8.50
2022-11-17T02:46:38.953Z,11.00
2022-11-17T02:49:09.660Z,11.38
2022-11-17T02:51:37.858Z,13.50
2022-11-17T02:54:05.765Z,13.60
2022-11-17T02:56:33.581Z,13.35
2022-11-17T02:59:04.179Z,14.35
2022-11-17T03:01:47.538Z,11.82
2022-11-17T03:04:26.143Z,12.43
2022-11-17T03:07:02.145Z,10.27
2022-11-17T03:09:40.212Z,10.40
2022-11-17T03:12:11.964Z,10.60
2022-11-17T03:14:52.090Z,10.50
2022-11-17T03:17:23.455Z,10.55
2022-11-17T03:19:57.391Z,11.73
2022-11-17T03:22:28.766Z,10.45
2022-11-17T03:24:58.371Z,11.35
2022-11-17T03:27:28.406Z,11.27
2022-11-17T03:30:00.696Z,11.50
2022-11-17T03:32:29.561Z,10.88
2022-11-17T03:34:59.546Z,12.10
2022-11-17T03:37:29.040Z,10.55
2022-11-17T03:39:59.835Z,10.95
2022-11-17T03:42:30.214Z,10.88
2022-11-17T03:45:06.132Z,12.15
2022-11-17T03:47:34.558Z,10.65
2022-11-17T03:50:06.569Z,10.73
2022-11-17T03:52:34.880Z,9.75
2022-11-17T03:55:02.770Z,9.52
2022-11-17T03:57:34.374Z,9.52
2022-11-17T04:00:06.751Z,10.10
2022-11-17T04:02:34.569Z,9.23
2022-11-17T04:05:08.597Z,9.93
2022-11-17T04:07:38.252Z,10.02
2022-11-17T04:10:07.313Z,9.32
2022-11-17T04:12:52.693Z,10.02
2022-11-17T04:15:39.339Z,9.10
2022-11-17T04:18:08.128Z,8.98
2022-11-17T04:20:36.961Z,9.00
2022-11-17T04:23:11.489Z,9.05
2022-11-17T04:25:58.627Z,9.20
2022-11-17T04:28:40.108Z,8.95
2022-11-17T04:31:12.095Z,7.93
2022-11-17T04:33:41.281Z,10.18
2022-11-17T04:36:09.310Z,9.82
2022-11-17T04:38:37.224Z,10.40
2022-11-17T04:41:23.919Z,9.82
2022-11-17T04:43:51.997Z,9.00
2022-11-17T04:46:21.960Z,10.20
2022-11-17T04:48:50.054Z,9.30
2022-11-17T04:51:18.359Z,9.85
2022-11-17T04:53:46.232Z,9.57
2022-11-17T04:56:14.204Z,9.40
2022-11-17T04:58:42.006Z,8.88
2022-11-17T05:01:17.548Z,9.02
2022-11-17T05:03:47.981Z,9.27
2022-11-17T05:06:16.993Z,9.00
2022-11-17T05:08:44.956Z,9.65
2022-11-17T05:11:31.645Z,9.15
2022-11-17T05:14:00.176Z,9.57
2022-11-17T05:16:51.110Z,11.00
2022-11-17T05:19:21.715Z,9.82
2022-11-17T05:21:49.758Z,8.63
2022-11-17T05:24:17.036Z,8.82
2022-11-17T05:26:46.334Z,8.73
2022-11-17T05:29:15.183Z,19.15
2022-11-17T05:31:43.395Z,10.35
2022-11-17T05:34:13.269Z,9.68
2022-11-17T05:36:43.063Z,14.60
2022-11-17T05:39:11.534Z,10.30
2022-11-17T05:41:39.224Z,8.57
2022-11-17T05:44:06.949Z,9.13
2022-11-17T05:46:34.601Z,10.15
2022-11-17T05:49:02.396Z,7.95
2022-11-17T05:51:32.068Z,9.23
2022-11-17T05:54:01.169Z,9.07
2022-11-17T05:56:35.893Z,10.13
2022-11-17T05:59:12.950Z,9.50
2022-11-17T06:01:43.822Z,8.90
2022-11-17T06:04:12.313Z,8.25
2022-11-17T06:06:39.973Z,11.30
2022-11-17T06:09:09.054Z,8.93
2022-11-17T06:11:36.748Z,13.07
2022-11-17T06:14:04.579Z,10.52
2022-11-17T06:16:33.787Z,10.10
2022-11-17T06:19:04.130Z,11.68
2022-11-17T06:21:49.322Z,9.27
2022-11-17T06:24:21.318Z,9.27
2022-11-17T06:26:49.099Z,9.73
2022-11-17T06:29:17.114Z,9.20
2022-11-17T06:31:45.145Z,9.57
2022-11-17T06:34:13.560Z,9.18
2022-11-17T06:36:41.249Z,9.02
2022-11-17T06:39:09.138Z,9.30
2022-11-17T06:41:39.949Z,8.52
2022-11-17T06:44:07.727Z,9.77
2022-11-17T06:46:38.857Z,9.52
2022-11-17T06:49:07.505Z,10.13
2022-11-17T06:51:35.228Z,9.85
2022-11-17T06:54:03.899Z,9.73
2022-11-17T06:56:31.626Z,10.13
2022-11-17T06:59:00.668Z,13.48
2022-11-17T07:01:28.577Z,11.80
2022-11-17T07:03:56.238Z,15.75
2022-11-17T07:06:23.947Z,12.52
2022-11-17T07:08:51.889Z,12.15
2022-11-17T07:11:19.583Z,12.63
2022-11-17T07:13:47.743Z,11.32
2022-11-17T07:16:23.492Z,21.13
2022-11-17T07:18:53.003Z,15.20
2022-11-17T07:21:22.405Z,11.98
2022-11-17T07:23:50.073Z,10.07
2022-11-17T07:26:17.669Z,16.63
2022-11-17T07:28:45.344Z,15.13
2022-11-17T07:31:13.124Z,13.98
2022-11-17T07:33:42.304Z,17.02
2022-11-17T07:36:12.080Z,12.27
2022-11-17T07:38:40.796Z,11.05
2022-11-17T07:41:10.073Z,11.65
2022-11-17T07:43:37.978Z,12.40
2022-11-17T07:46:06.170Z,10.40
2022-11-17T07:48:34.302Z,10.40
2022-11-17T07:51:04.303Z,10.65
2022-11-17T07:53:33.322Z,10.98
2022-11-17T07:56:04.297Z,10.93
2022-11-17T07:58:32.066Z,14.57
2022-11-17T08:01:00.302Z,14.90
2022-11-17T08:03:28.007Z,13.90
2022-11-17T08:05:55.863Z,11.27
2022-11-17T08:08:24.979Z,16.70
2022-11-17T08:10:52.696Z,11.02
2022-11-17T08:13:20.356Z,12.15
2022-11-17T08:15:48.172Z,9.40
2022-11-17T08:18:16.709Z,9.45
2022-11-17T08:20:44.507Z,9.57
2022-11-17T08:23:12.292Z,9.63
2022-11-17T08:25:41.428Z,10.15
2022-11-17T08:28:09.209Z,10.93
2022-11-17T08:30:36.889Z,10.35
2022-11-17T08:33:04.824Z,18.50
2022-11-17T08:35:37.314Z,14.65
2022-11-17T08:38:05.519Z,10.52
2022-11-17T08:40:33.316Z,10.25
2022-11-17T08:43:02.337Z,9.20
2022-11-17T08:45:30.327Z,9.10
2022-11-17T08:47:58.325Z,10.15
2022-11-17T08:50:26.436Z,9.90
2022-11-17T08:52:54.533Z,9.52
2022-11-17T08:55:22.275Z,9.93
2022-11-17T08:57:49.953Z,10.07
2022-11-17T09:00:21.777Z,10.63
2022-11-17T09:02:49.515Z,10.73
2022-11-17T09:05:17.156Z,9.82
2022-11-17T09:07:46.789Z,9.27
2022-11-17T09:10:14.680Z,9.63
2022-11-17T09:12:42.397Z,9.85
2022-11-17T09:15:11.207Z,8.77
2022-11-17T09:17:40.343Z,10.00
2022-11-17T09:20:09.050Z,8.90
2022-11-17T09:22:36.721Z,8.90
2022-11-17T09:25:08.935Z,8.77
2022-11-17T09:27:41.164Z,8.65
2022-11-17T09:30:10.211Z,9.52
2022-11-17T09:32:39.204Z,9.40
2022-11-17T09:35:09.433Z,8.73
2022-11-17T09:37:37.288Z,9.35
2022-11-17T09:40:05.756Z,9.88
2022-11-17T09:42:38.931Z,10.05
2022-11-17T09:45:13.347Z,9.40
2022-11-17T09:47:44.442Z,8.95
2022-11-17T09:50:20.145Z,9.18
2022-11-17T09:52:55.599Z,9.10
2022-11-17T09:55:33.728Z,9.40
2022-11-17T09:58:12.944Z,9.40
2022-11-17T10:00:43.393Z,9.77
2022-11-17T10:03:18.297Z,9.80
2022-11-17T10:05:48.660Z,8.80
2022-11-17T10:08:18.287Z,9.40
2022-11-17T10:10:47.718Z,9.80
2022-11-17T10:13:21.295Z,9.30
2022-11-17T10:15:51.144Z,9.10
2022-11-17T10:18:18.815Z,9.57
2022-11-17T10:20:47.908Z,9.38
2022-11-17T10:23:18.354Z,10.13
2022-11-17T10:25:47.582Z,10.63
2022-11-17T10:28:26.727Z,10.80
2022-11-17T10:30:56.561Z,10.00
2022-11-17T10:33:41.008Z,9.80
2022-11-17T10:36:16.616Z,9.70
2022-11-17T10:38:49.015Z,9.80
2022-11-17T10:41:18.349Z,9.18
2022-11-17T10:43:55.774Z,9.52
2022-11-17T10:46:24.031Z,10.00
2022-11-17T10:48:57.030Z,9.63
2022-11-17T10:51:27.552Z,9.35
2022-11-17T10:54:04.215Z,9.65
2022-11-17T10:56:33.221Z,9.57
2022-11-17T10:59:05.368Z,9.98
2022-11-17T11:04:06.956Z,10.52
2022-11-17T11:09:06.568Z,9.02
2022-11-17T11:11:42.571Z,8.88
2022-11-17T11:14:21.126Z,9.20
2022-11-17T11:16:51.009Z,9.10
2022-11-17T11:19:20.713Z,8.98
2022-11-17T11:22:01.243Z,9.10
2022-11-17T11:24:36.060Z,9.32
2022-11-17T11:27:25.738Z,8.77
2022-11-17T11:30:01.340Z,8.20
2022-11-17T11:32:35.694Z,8.95
2022-11-17T11:35:27.388Z,9.13
2022-11-17T11:38:00.048Z,8.83
2022-11-17T11:40:30.703Z,8.63
2022-11-17T11:42:59.516Z,8.57
2022-11-17T11:45:39.570Z,8.55
2022-11-17T11:48:18.600Z,9.52
2022-11-17T11:50:54.507Z,9.40
2022-11-17T11:53:33.694Z,8.90
2022-11-17T11:56:15.674Z,8.85
2022-11-17T11:58:48.126Z,8.75
2022-11-17T12:01:17.782Z,8.20
2022-11-17T12:03:50.384Z,9.02
2022-11-17T12:06:42.819Z,8.93
2022-11-17T12:09:30.423Z,8.93
2022-11-17T12:12:01.614Z,8.70
2022-11-17T12:14:30.757Z,9.18
2022-11-17T12:17:06.634Z,8.65
2022-11-17T12:19:51.137Z,8.70
2022-11-17T12:22:40.147Z,9.07
2022-11-17T12:25:17.913Z,8.70
2022-11-17T12:27:47.166Z,8.85
2022-11-17T12:30:50.096Z,9.43
2022-11-17T12:33:17.780Z,8.88
2022-11-17T12:35:45.607Z,9.07
2022-11-17T12:38:41.588Z,8.57
2022-11-17T12:41:10.746Z,10.23
2022-11-17T12:43:38.506Z,9.25
2022-11-17T12:46:15.368Z,9.50
2022-11-17T12:48:48.723Z,9.00
2022-11-17T12:51:22.947Z,9.00
2022-11-17T12:53:59.746Z,9.32
2022-11-17T12:56:40.787Z,9.77
2022-11-17T12:59:26.895Z,10.30
2022-11-17T13:02:00.676Z,9.23
2022-11-17T13:04:36.397Z,9.23
2022-11-17T13:07:06.053Z,10.57
2022-11-17T13:09:34.923Z,9.52
2022-11-17T13:12:05.886Z,10.52
2022-11-17T13:14:34.276Z,8.88
2022-11-17T13:17:02.811Z,9.52
2022-11-17T13:19:36.619Z,9.32
2022-11-17T13:22:07.408Z,9.27
2022-11-17T13:24:36.477Z,9.50
2022-11-17T13:27:08.532Z,9.57
2022-11-17T13:29:36.407Z,9.95
2022-11-17T13:32:23.827Z,9.48
2022-11-17T13:34:56.291Z,10.05
2022-11-17T13:37:25.686Z,9.13
2022-11-17T13:40:03.371Z,9.80
2022-11-17T13:42:34.439Z,10.00
2022-11-17T13:45:04.482Z,9.05
2022-11-17T13:47:47.509Z,9.23
2022-11-17T13:50:39.954Z,9.32
2022-11-17T13:53:22.728Z,10.13
2022-11-17T13:55:50.947Z,9.77
2022-11-17T13:58:27.633Z,9.25
2022-11-17T14:00:57.235Z,9.65
2022-11-17T14:03:37.040Z,9.73
2022-11-17T14:06:06.847Z,9.20
2022-11-17T14:08:35.625Z,9.55
2022-11-17T14:11:09.332Z,9.85
2022-11-17T14:13:40.705Z,9.90
2022-11-17T14:16:20.946Z,10.03
2022-11-17T14:19:00.416Z,10.20
2022-11-17T14:21:28.758Z,9.35
2022-11-17T14:24:10.787Z,9.70
2022-11-17T14:26:42.697Z,9.40
2022-11-17T14:29:13.105Z,11.68
2022-11-17T14:31:40.833Z,9.95
2022-11-17T14:34:08.548Z,11.88
2022-11-17T14:36:37.434Z,10.73
2022-11-17T14:39:05.455Z,9.60
2022-11-17T14:41:33.128Z,10.23
2022-11-17T14:44:00.780Z,9.60
2022-11-17T14:46:29.771Z,9.60
2022-11-17T14:48:57.495Z,11.10
2022-11-17T14:51:25.632Z,13.07
2022-11-17T14:53:54.180Z,10.50
2022-11-17T14:56:23.620Z,10.18
2022-11-17T14:58:55.037Z,14.43
2022-11-17T15:01:25.378Z,28.83
2022-11-17T15:03:55.315Z,10.27
2022-11-17T15:06:23.588Z,14.25
2022-11-17T15:08:54.926Z,12.35
2022-11-17T15:11:22.646Z,10.03
2022-11-17T15:13:50.345Z,11.07
2022-11-17T15:16:18.194Z,12.82
2022-11-17T15:18:47.524Z,12.25
2022-11-17T15:21:17.200Z,11.00
2022-11-17T15:23:45.356Z,10.85
2022-11-17T15:26:14.613Z,10.52
2022-11-17T15:28:42.590Z,10.23
2022-11-17T15:31:12.279Z,10.57
2022-11-17T15:33:41.421Z,13.15
2022-11-17T15:36:10.370Z,15.73
2022-11-17T15:38:40.686Z,14.75
2022-11-17T15:41:09.580Z,15.75
2022-11-17T15:43:38.447Z,16.35
2022-11-17T15:46:07.843Z,10.13
2022-11-17T15:48:38.880Z,11.25
2022-11-17T15:51:07.808Z,9.95
2022-11-17T15:53:38.419Z,13.30
2022-11-17T15:56:09.233Z,10.50
2022-11-17T15:58:37.171Z,17.25
2022-11-17T16:01:09.405Z,21.60
2022-11-17T16:06:04.938Z,15.57
2022-11-17T16:08:32.930Z,10.77
2022-11-17T16:11:00.689Z,12.20
2022-11-17T16:13:29.766Z,16.00
2022-11-17T16:15:57.997Z,12.65
2022-11-17T16:18:25.814Z,13.30
2022-11-17T16:20:53.503Z,14.88
2022-11-17T16:23:21.220Z,13.32
2022-11-17T16:25:49.510Z,19.23
2022-11-17T16:28:18.351Z,10.75
2022-11-17T16:30:47.426Z,18.52
2022-11-17T16:33:16.562Z,13.90
2022-11-17T16:35:45.400Z,13.88
2022-11-17T16:38:15.116Z,27.40
2022-11-17T16:40:42.941Z,13.88
2022-11-17T16:43:11.758Z,11.80
2022-11-17T16:45:43.406Z,12.13
2022-11-17T16:48:12.956Z,11.02
2022-11-17T16:50:41.564Z,11.23
2022-11-17T16:53:09.380Z,11.57
2022-11-17T16:55:37.395Z,10.60
2022-11-17T16:58:05.662Z,12.95
2022-11-17T17:00:34.716Z,17.33
2022-11-17T17:03:02.514Z,10.52
2022-11-17T17:05:31.643Z,16.13
2022-11-17T17:07:59.301Z,11.50
2022-11-17T17:10:27.055Z,16.75
2022-11-17T17:12:54.694Z,15.32
2022-11-17T17:15:22.402Z,20.92
2022-11-17T17:17:50.058Z,17.92
2022-11-17T17:20:18.137Z,14.88
2022-11-17T17:22:47.214Z,12.60
2022-11-17T17:25:15.301Z,11.40
2022-11-17T17:27:43.080Z,11.43
2022-11-17T17:30:11.839Z,11.75
2022-11-17T17:32:39.505Z,11.48
2022-11-17T17:35:08.060Z,11.27
2022-11-17T17:37:35.789Z,15.55
2022-11-17T17:40:05.395Z,11.20
2022-11-17T17:42:33.107Z,11.48
2022-11-17T17:45:00.780Z,12.13
2022-11-17T17:47:28.418Z,11.98
2022-11-17T17:49:56.203Z,11.38
2022-11-17T17:52:23.942Z,18.88
2022-11-17T17:54:51.654Z,35.90
2022-11-17T17:57:20.693Z,27.63
2022-11-17T17:59:48.332Z,27.00
2022-11-17T18:02:16.098Z,30.92
2022-11-17T18:04:43.731Z,27.52
2022-11-17T18:07:11.414Z,28.42
2022-11-17T18:09:39.131Z,19.02
2022-11-17T18:12:07.012Z,19.27
2022-11-17T18:14:36.082Z,19.35
2022-11-17T18:17:03.714Z,15.20
2022-11-17T18:19:33.187Z,13.10
2022-11-17T18:22:01.180Z,12.60
2022-11-17T18:24:29.404Z,14.57
2022-11-17T18:26:57.199Z,13.73
2022-11-17T18:29:24.863Z,14.70
2022-11-17T18:31:54.649Z,12.13
2022-11-17T18:34:23.566Z,16.15
2022-11-17T18:36:52.236Z,14.85
2022-11-17T18:39:21.262Z,16.17
2022-11-17T18:41:48.995Z,13.55
2022-11-17T18:44:18.472Z,15.60
2022-11-17T18:46:46.680Z,11.93
2022-11-17T18:49:16.195Z,25.35
2022-11-17T18:51:44.140Z,13.82
2022-11-17T18:54:12.172Z,18.67
2022-11-17T18:56:39.965Z,15.77
2022-11-17T18:59:11.470Z,19.73
2022-11-17T19:01:43.636Z,15.05
2022-11-17T19:04:13.395Z,17.52
2022-11-17T19:06:42.591Z,12.50
2022-11-17T19:09:10.808Z,15.43
2022-11-17T19:11:38.512Z,12.20
2022-11-17T19:14:06.633Z,16.02
2022-11-17T19:16:42.638Z,13.77
2022-11-17T19:19:13.136Z,13.07
2022-11-17T19:21:43.131Z,14.10
2022-11-17T19:24:10.833Z,14.88
2022-11-17T19:26:38.556Z,16.08
2022-11-17T19:29:14.297Z,12.90
2022-11-17T19:31:44.227Z,12.18
2022-11-17T19:34:12.168Z,13.02
2022-11-17T19:36:39.982Z,12.63
2022-11-17T19:39:09.035Z,14.27
2022-11-17T19:41:38.293Z,29.05
2022-11-17T19:44:07.938Z,26.83
2022-11-17T19:46:36.118Z,24.38
2022-11-17T19:49:04.640Z,18.60
2022-11-17T19:51:33.250Z,16.02
2022-11-17T19:54:04.084Z,16.08
2022-11-17T19:56:33.165Z,15.80
2022-11-17T19:59:01.103Z,13.32
2022-11-17T20:01:30.069Z,14.77
2022-11-17T20:03:58.995Z,14.43
2022-11-17T20:06:28.198Z,12.73
2022-11-17T20:08:56.070Z,14.98
2022-11-17T20:11:24.763Z,34.85
2022-11-17T20:13:54.208Z,25.50
2022-11-17T20:16:24.457Z,17.08
2022-11-17T20:18:53.677Z,17.38
2022-11-17T20:21:21.664Z,16.80
2022-11-17T20:23:49.425Z,16.25
2022-11-17T20:26:18.911Z,18.92
2022-11-17T20:28:47.740Z,21.40
2022-11-17T20:31:19.259Z,19.63
2022-11-17T20:33:47.554Z,21.58
2022-11-17T20:36:17.621Z,19.63
2022-11-17T20:38:45.348Z,17.38
2022-11-17T20:41:12.962Z,15.80
2022-11-17T20:43:40.703Z,15.95
2022-11-17T20:46:08.444Z,14.10
2022-11-17T20:48:37.604Z,19.67
2022-11-17T20:51:07.289Z,20.92
2022-11-17T20:53:35.423Z,14.23
2022-11-17T20:56:05.953Z,15.20
2022-11-17T20:58:33.774Z,13.88
2022-11-17T21:01:07.700Z,15.65
2022-11-17T21:03:37.027Z,15.50
2022-11-17T21:06:05.902Z,15.13
2022-11-17T21:08:35.589Z,18.10
2022-11-17T21:11:04.888Z,15.90
2022-11-17T21:13:33.399Z,18.38
2022-11-17T21:16:09.310Z,16.95
2022-11-17T21:18:39.756Z,16.48
2022-11-17T21:21:09.532Z,19.67
2022-11-17T21:23:37.266Z,16.63
2022-11-17T21:26:06.133Z,14.40
2022-11-17T21:28:33.915Z,14.95
2022-11-17T21:31:07.507Z,15.73
2022-11-17T21:33:35.329Z,20.73
2022-11-17T21:36:05.905Z,19.38
2022-11-17T21:38:33.589Z,14.60
2022-11-17T21:41:04.944Z,15.32
2022-11-17T21:43:32.838Z,16.13
2022-11-17T21:46:03.849Z,14.80
2022-11-17T21:48:31.569Z,11.85
2022-11-17T21:50:59.655Z,13.80
2022-11-17T21:53:29.804Z,12.55
2022-11-17T21:56:01.204Z,14.13
2022-11-17T21:58:28.967Z,8.63
2022-11-17T22:00:56.827Z,13.93
2022-11-17T22:03:24.918Z,10.07
2022-11-17T22:05:56.769Z,10.15
2022-11-17T22:08:29.384Z,9.88
2022-11-17T22:10:57.251Z,9.35
2022-11-17T22:13:24.899Z,8.18
2022-11-17T22:15:52.551Z,8.60
2022-11-17T22:18:20.238Z,7.47
2022-11-17T22:20:51.670Z,7.88
2022-11-17T22:23:19.589Z,8.10
2022-11-17T22:25:55.661Z,8.32
2022-11-17T22:28:24.283Z,7.85
2022-11-17T22:30:52.696Z,7.30
2022-11-17T22:33:20.580Z,7.53
2022-11-17T22:35:48.748Z,7.72
2022-11-17T22:38:17.752Z,7.60
2022-11-17T22:40:45.796Z,7.72
2022-11-17T22:43:15.664Z,7.00
2022-11-17T22:45:43.567Z,6.82
2022-11-17T22:48:11.435Z,7.05
2022-11-17T22:50:39.976Z,6.75
2022-11-17T22:53:07.877Z,7.50
2022-11-17T22:55:35.640Z,6.90
2022-11-17T22:58:03.283Z,7.40
2022-11-17T23:00:32.451Z,6.95
2022-11-17T23:03:00.327Z,7.30
2022-11-17T23:05:28.146Z,7.68
2022-11-17T23:07:55.813Z,7.18
2022-11-17T23:10:23.469Z,6.80
2022-11-17T23:12:51.548Z,6.70
2022-11-17T23:15:19.637Z,6.82
2022-11-17T23:17:49.780Z,7.95
2022-11-17T23:20:17.556Z,6.70
2022-11-17T23:22:45.225Z,7.22
2022-11-17T23:25:12.879Z,7.10
2022-11-17T23:27:40.585Z,7.15
2022-11-17T23:30:09.052Z,6.78
2022-11-17T23:32:36.781Z,6.85
2022-11-17T23:35:06.489Z,6.93
2022-11-17T23:37:34.093Z,7.00
2022-11-17T23:40:02.086Z,7.35
2022-11-17T23:42:32.477Z,7.40
2022-11-17T23:45:00.700Z,7.13
2022-11-17T23:47:28.327Z,7.22
2022-11-17T23:49:56.013Z,6.97
2022-11-17T23:52:25.119Z,6.57
2022-11-17T23:54:53.183Z,6.80
2022-11-17T23:57:21.962Z,6.88
2022-11-17T23:59:50.069Z,6.90
